East Ely, Nevada
Current Conditions -  °F | °C
As of 9:53 AM on Monday 24 Nov 2014 (Local Time) from KELY Reporting Station
Clear Clear  
Wind Chill: 37°   Ceiling: Unl
Heat Index: 37°   Visibility: 10mi
Dew Point: 25°   Wind: 0mph
Humidity: 62%   Direction: NA
Pressure: 30.4"   Gusts: NA
Location:  39.25°N, 114.87°W
Report Text: KELY 241753Z AUTO 00000KT 10SM CLR 03/M04 A3040 RMK AO2 SLP316 T00281039 10028 21133 51014
Loading
Personal Weather Stations






























Interactive Weather Map New forecast layout! Learn more

10-Day Weather Forecast

Advertisements
Track Severe Weather on mobile